sensor_id;sensor_type;location;lat;lon;timestamp;P1;durP1;ratioP1;P2;durP2;ratioP2
19495;SDS011;9888;48.606;9.630;2023-03-19T00:00:49;7.70;;;2.60;;
19495;SDS011;9888;48.606;9.630;2023-03-19T00:03:16;7.80;;;3.00;;
19495;SDS011;9888;48.606;9.630;2023-03-19T00:05:51;9.37;;;2.67;;
19495;SDS011;9888;48.606;9.630;2023-03-19T00:08:19;10.73;;;3.23;;
19495;SDS011;9888;48.606;9.630;2023-03-19T00:10:47;10.30;;;2.87;;
19495;SDS011;9888;48.606;9.630;2023-03-19T00:13:15;9.40;;;2.93;;
19495;SDS011;9888;48.606;9.630;2023-03-19T00:15:43;9.00;;;3.10;;
19495;SDS011;9888;48.606;9.630;2023-03-19T00:18:10;8.03;;;2.93;;
19495;SDS011;9888;48.606;9.630;2023-03-19T00:20:37;7.17;;;2.60;;
19495;SDS011;9888;48.606;9.630;2023-03-19T00:23:05;11.60;;;3.43;;
19495;SDS011;9888;48.606;9.630;2023-03-19T00:25:33;6.63;;;2.33;;
19495;SDS011;9888;48.606;9.630;2023-03-19T00:28:01;7.27;;;2.60;;
19495;SDS011;9888;48.606;9.630;2023-03-19T00:30:32;8.20;;;3.00;;
19495;SDS011;9888;48.606;9.630;2023-03-19T00:32:59;7.30;;;2.67;;
19495;SDS011;9888;48.606;9.630;2023-03-19T00:35:27;6.93;;;2.60;;
19495;SDS011;9888;48.606;9.630;2023-03-19T00:37:55;7.37;;;2.83;;
19495;SDS011;9888;48.606;9.630;2023-03-19T00:40:22;9.40;;;2.70;;
19495;SDS011;9888;48.606;9.630;2023-03-19T00:42:49;8.97;;;2.83;;
19495;SDS011;9888;48.606;9.630;2023-03-19T00:45:17;8.30;;;2.90;;
19495;SDS011;9888;48.606;9.630;2023-03-19T00:47:45;8.20;;;3.10;;
19495;SDS011;9888;48.606;9.630;2023-03-19T00:50:13;9.53;;;2.90;;
19495;SDS011;9888;48.606;9.630;2023-03-19T00:52:41;8.43;;;3.37;;
19495;SDS011;9888;48.606;9.630;2023-03-19T00:55:09;8.70;;;3.13;;
19495;SDS011;9888;48.606;9.630;2023-03-19T00:57:37;7.00;;;2.40;;
19495;SDS011;9888;48.606;9.630;2023-03-19T01:00:05;8.07;;;2.93;;
19495;SDS011;9888;48.606;9.630;2023-03-19T01:02:33;7.50;;;2.57;;
19495;SDS011;9888;48.606;9.630;2023-03-19T01:05:01;10.10;;;2.70;;
19495;SDS011;9888;48.606;9.630;2023-03-19T01:07:28;8.67;;;2.70;;
19495;SDS011;9888;48.606;9.630;2023-03-19T01:09:57;8.60;;;2.97;;
19495;SDS011;9888;48.606;9.630;2023-03-19T01:12:24;10.00;;;2.73;;
19495;SDS011;9888;48.606;9.630;2023-03-19T01:14:52;8.53;;;3.00;;
19495;SDS011;9888;48.606;9.630;2023-03-19T01:17:19;7.67;;;2.83;;
19495;SDS011;9888;48.606;9.630;2023-03-19T01:19:49;7.80;;;3.10;;
19495;SDS011;9888;48.606;9.630;2023-03-19T01:22:16;8.20;;;2.63;;
19495;SDS011;9888;48.606;9.630;2023-03-19T01:24:43;8.80;;;3.17;;
19495;SDS011;9888;48.606;9.630;2023-03-19T01:27:10;8.40;;;2.77;;
19495;SDS011;9888;48.606;9.630;2023-03-19T01:29:38;8.00;;;3.00;;
19495;SDS011;9888;48.606;9.630;2023-03-19T01:32:04;8.90;;;4.10;;
19495;SDS011;9888;48.606;9.630;2023-03-19T01:34:33;12.20;;;3.63;;
19495;SDS011;9888;48.606;9.630;2023-03-19T01:37:01;12.30;;;3.60;;
19495;SDS011;9888;48.606;9.630;2023-03-19T01:39:28;9.77;;;3.30;;
19495;SDS011;9888;48.606;9.630;2023-03-19T01:41:56;8.80;;;2.90;;
19495;SDS011;9888;48.606;9.630;2023-03-19T01:44:28;8.13;;;3.20;;
19495;SDS011;9888;48.606;9.630;2023-03-19T01:47:02;8.27;;;3.27;;
19495;SDS011;9888;48.606;9.630;2023-03-19T01:49:36;8.60;;;3.30;;
19495;SDS011;9888;48.606;9.630;2023-03-19T01:52:05;11.50;;;3.40;;
19495;SDS011;9888;48.606;9.630;2023-03-19T01:54:33;7.37;;;3.00;;
19495;SDS011;9888;48.606;9.630;2023-03-19T01:57:02;7.60;;;3.03;;
19495;SDS011;9888;48.606;9.630;2023-03-19T01:59:52;8.70;;;2.67;;
19495;SDS011;9888;48.606;9.630;2023-03-19T02:02:23;10.10;;;3.97;;
19495;SDS011;9888;48.606;9.630;2023-03-19T02:05:07;8.27;;;3.00;;
19495;SDS011;9888;48.606;9.630;2023-03-19T02:07:37;9.27;;;3.90;;
19495;SDS011;9888;48.606;9.630;2023-03-19T02:10:06;9.77;;;3.83;;
19495;SDS011;9888;48.606;9.630;2023-03-19T02:12:36;12.77;;;4.00;;
19495;SDS011;9888;48.606;9.630;2023-03-19T02:15:04;11.17;;;4.20;;
19495;SDS011;9888;48.606;9.630;2023-03-19T02:17:32;10.40;;;4.40;;
19495;SDS011;9888;48.606;9.630;2023-03-19T02:22:51;9.73;;;3.43;;
19495;SDS011;9888;48.606;9.630;2023-03-19T02:28:22;8.70;;;2.90;;
19495;SDS011;9888;48.606;9.630;2023-03-19T02:30:51;9.67;;;3.20;;
19495;SDS011;9888;48.606;9.630;2023-03-19T02:42:12;8.07;;;3.30;;
19495;SDS011;9888;48.606;9.630;2023-03-19T02:44:40;9.83;;;3.53;;
19495;SDS011;9888;48.606;9.630;2023-03-19T02:47:09;10.40;;;3.57;;
19495;SDS011;9888;48.606;9.630;2023-03-19T02:49:39;9.70;;;4.03;;
19495;SDS011;9888;48.606;9.630;2023-03-19T02:52:06;11.53;;;3.60;;
19495;SDS011;9888;48.606;9.630;2023-03-19T02:54:34;8.97;;;3.37;;
19495;SDS011;9888;48.606;9.630;2023-03-19T02:57:01;9.33;;;3.83;;
19495;SDS011;9888;48.606;9.630;2023-03-19T02:59:28;11.87;;;4.10;;
19495;SDS011;9888;48.606;9.630;2023-03-19T03:01:56;10.27;;;4.60;;
19495;SDS011;9888;48.606;9.630;2023-03-19T03:04:24;10.90;;;4.00;;
19495;SDS011;9888;48.606;9.630;2023-03-19T03:06:52;12.50;;;3.43;;
19495;SDS011;9888;48.606;9.630;2023-03-19T03:12:32;10.57;;;3.83;;
19495;SDS011;9888;48.606;9.630;2023-03-19T03:15:00;10.27;;;4.07;;
19495;SDS011;9888;48.606;9.630;2023-03-19T03:17:27;12.27;;;4.47;;
19495;SDS011;9888;48.606;9.630;2023-03-19T03:19:59;11.77;;;4.07;;
19495;SDS011;9888;48.606;9.630;2023-03-19T03:22:28;11.13;;;3.83;;
19495;SDS011;9888;48.606;9.630;2023-03-19T03:24:57;10.57;;;3.27;;
19495;SDS011;9888;48.606;9.630;2023-03-19T03:27:24;7.10;;;2.60;;
19495;SDS011;9888;48.606;9.630;2023-03-19T03:29:52;9.03;;;3.33;;
19495;SDS011;9888;48.606;9.630;2023-03-19T03:32:20;7.40;;;3.00;;
19495;SDS011;9888;48.606;9.630;2023-03-19T03:34:48;8.10;;;3.10;;
19495;SDS011;9888;48.606;9.630;2023-03-19T03:37:15;7.80;;;3.00;;
19495;SDS011;9888;48.606;9.630;2023-03-19T03:39:43;8.30;;;3.30;;
19495;SDS011;9888;48.606;9.630;2023-03-19T03:42:11;7.53;;;2.83;;
19495;SDS011;9888;48.606;9.630;2023-03-19T03:44:39;7.10;;;2.60;;
19495;SDS011;9888;48.606;9.630;2023-03-19T03:47:07;8.80;;;3.00;;
19495;SDS011;9888;48.606;9.630;2023-03-19T03:49:36;8.20;;;3.00;;
19495;SDS011;9888;48.606;9.630;2023-03-19T03:52:04;8.53;;;3.27;;
19495;SDS011;9888;48.606;9.630;2023-03-19T03:54:33;10.43;;;3.00;;
19495;SDS011;9888;48.606;9.630;2023-03-19T03:57:01;9.80;;;3.37;;
19495;SDS011;9888;48.606;9.630;2023-03-19T03:59:28;8.53;;;3.30;;
19495;SDS011;9888;48.606;9.630;2023-03-19T04:01:55;11.70;;;3.43;;
19495;SDS011;9888;48.606;9.630;2023-03-19T04:04:23;8.93;;;3.20;;
19495;SDS011;9888;48.606;9.630;2023-03-19T04:06:50;10.40;;;3.60;;
19495;SDS011;9888;48.606;9.630;2023-03-19T04:09:17;12.50;;;3.70;;
19495;SDS011;9888;48.606;9.630;2023-03-19T04:11:44;9.07;;;3.33;;
19495;SDS011;9888;48.606;9.630;2023-03-19T04:14:11;9.83;;;4.17;;
19495;SDS011;9888;48.606;9.630;2023-03-19T04:16:38;11.93;;;4.53;;
19495;SDS011;9888;48.606;9.630;2023-03-19T04:19:04;10.40;;;4.30;;
19495;SDS011;9888;48.606;9.630;2023-03-19T04:21:32;11.47;;;3.60;;
19495;SDS011;9888;48.606;9.630;2023-03-19T04:23:58;8.50;;;3.80;;
19495;SDS011;9888;48.606;9.630;2023-03-19T04:26:26;12.43;;;4.63;;
19495;SDS011;9888;48.606;9.630;2023-03-19T04:28:53;10.63;;;4.80;;
19495;SDS011;9888;48.606;9.630;2023-03-19T04:31:20;10.23;;;4.60;;
19495;SDS011;9888;48.606;9.630;2023-03-19T04:33:47;8.90;;;3.83;;
19495;SDS011;9888;48.606;9.630;2023-03-19T04:36:15;10.77;;;4.40;;
19495;SDS011;9888;48.606;9.630;2023-03-19T04:38:43;9.60;;;4.30;;
19495;SDS011;9888;48.606;9.630;2023-03-19T04:41:10;9.53;;;4.60;;
19495;SDS011;9888;48.606;9.630;2023-03-19T04:43:38;10.07;;;4.10;;
19495;SDS011;9888;48.606;9.630;2023-03-19T04:46:05;11.27;;;4.20;;
19495;SDS011;9888;48.606;9.630;2023-03-19T04:48:36;9.20;;;4.20;;
19495;SDS011;9888;48.606;9.630;2023-03-19T04:51:04;9.93;;;3.87;;
19495;SDS011;9888;48.606;9.630;2023-03-19T04:53:36;9.67;;;4.40;;
19495;SDS011;9888;48.606;9.630;2023-03-19T04:56:04;10.53;;;4.30;;
19495;SDS011;9888;48.606;9.630;2023-03-19T04:58:32;14.63;;;4.60;;
19495;SDS011;9888;48.606;9.630;2023-03-19T05:00:59;9.07;;;4.60;;
19495;SDS011;9888;48.606;9.630;2023-03-19T05:03:28;11.53;;;4.40;;
19495;SDS011;9888;48.606;9.630;2023-03-19T05:05:56;11.70;;;4.40;;
19495;SDS011;9888;48.606;9.630;2023-03-19T05:08:24;10.00;;;4.80;;
19495;SDS011;9888;48.606;9.630;2023-03-19T05:10:51;10.00;;;4.30;;
19495;SDS011;9888;48.606;9.630;2023-03-19T05:13:18;10.60;;;3.83;;
19495;SDS011;9888;48.606;9.630;2023-03-19T05:15:45;9.90;;;4.37;;
19495;SDS011;9888;48.606;9.630;2023-03-19T05:18:12;10.00;;;4.37;;
19495;SDS011;9888;48.606;9.630;2023-03-19T05:20:40;12.67;;;4.70;;
19495;SDS011;9888;48.606;9.630;2023-03-19T05:23:07;11.00;;;5.20;;
19495;SDS011;9888;48.606;9.630;2023-03-19T05:25:34;10.00;;;4.50;;
19495;SDS011;9888;48.606;9.630;2023-03-19T05:28:02;11.33;;;5.40;;
19495;SDS011;9888;48.606;9.630;2023-03-19T05:30:30;10.20;;;5.30;;
19495;SDS011;9888;48.606;9.630;2023-03-19T05:32:57;10.50;;;4.87;;
19495;SDS011;9888;48.606;9.630;2023-03-19T05:35:26;8.90;;;4.70;;
19495;SDS011;9888;48.606;9.630;2023-03-19T05:37:55;11.50;;;5.27;;
19495;SDS011;9888;48.606;9.630;2023-03-19T05:40:23;10.60;;;5.20;;
19495;SDS011;9888;48.606;9.630;2023-03-19T05:42:50;13.40;;;4.83;;
19495;SDS011;9888;48.606;9.630;2023-03-19T05:45:17;11.23;;;5.47;;
19495;SDS011;9888;48.606;9.630;2023-03-19T05:47:48;9.70;;;4.90;;
19495;SDS011;9888;48.606;9.630;2023-03-19T05:50:16;11.40;;;5.20;;
19495;SDS011;9888;48.606;9.630;2023-03-19T05:52:43;10.43;;;4.80;;
19495;SDS011;9888;48.606;9.630;2023-03-19T05:55:10;15.20;;;4.83;;
19495;SDS011;9888;48.606;9.630;2023-03-19T05:57:38;10.93;;;4.97;;
19495;SDS011;9888;48.606;9.630;2023-03-19T06:00:06;10.93;;;5.40;;
19495;SDS011;9888;48.606;9.630;2023-03-19T06:02:35;10.90;;;5.63;;
19495;SDS011;9888;48.606;9.630;2023-03-19T06:05:03;13.30;;;5.10;;
19495;SDS011;9888;48.606;9.630;2023-03-19T06:07:31;11.23;;;5.47;;
19495;SDS011;9888;48.606;9.630;2023-03-19T06:09:59;12.53;;;5.17;;
19495;SDS011;9888;48.606;9.630;2023-03-19T06:12:27;12.07;;;5.30;;
19495;SDS011;9888;48.606;9.630;2023-03-19T06:14:54;12.50;;;5.47;;
19495;SDS011;9888;48.606;9.630;2023-03-19T06:17:22;13.93;;;5.07;;
19495;SDS011;9888;48.606;9.630;2023-03-19T06:19:49;13.60;;;5.30;;
19495;SDS011;9888;48.606;9.630;2023-03-19T06:22:17;11.43;;;5.90;;
19495;SDS011;9888;48.606;9.630;2023-03-19T06:24:46;11.23;;;5.80;;
19495;SDS011;9888;48.606;9.630;2023-03-19T06:27:14;13.80;;;5.60;;
19495;SDS011;9888;48.606;9.630;2023-03-19T06:29:43;13.77;;;6.60;;
19495;SDS011;9888;48.606;9.630;2023-03-19T06:32:10;15.43;;;6.97;;
19495;SDS011;9888;48.606;9.630;2023-03-19T06:34:37;11.53;;;5.73;;
19495;SDS011;9888;48.606;9.630;2023-03-19T06:37:04;12.93;;;6.50;;
19495;SDS011;9888;48.606;9.630;2023-03-19T06:39:31;16.90;;;8.17;;
19495;SDS011;9888;48.606;9.630;2023-03-19T06:41:59;15.63;;;8.07;;
19495;SDS011;9888;48.606;9.630;2023-03-19T06:44:26;14.10;;;7.10;;
19495;SDS011;9888;48.606;9.630;2023-03-19T06:46:53;16.77;;;7.23;;
19495;SDS011;9888;48.606;9.630;2023-03-19T06:49:21;15.37;;;7.00;;
19495;SDS011;9888;48.606;9.630;2023-03-19T06:51:49;15.07;;;6.73;;
19495;SDS011;9888;48.606;9.630;2023-03-19T06:54:17;12.67;;;6.87;;
19495;SDS011;9888;48.606;9.630;2023-03-19T06:56:44;13.23;;;6.67;;
19495;SDS011;9888;48.606;9.630;2023-03-19T06:59:12;13.03;;;6.93;;
19495;SDS011;9888;48.606;9.630;2023-03-19T07:01:39;14.23;;;6.60;;
19495;SDS011;9888;48.606;9.630;2023-03-19T07:04:07;20.93;;;11.90;;
19495;SDS011;9888;48.606;9.630;2023-03-19T07:06:35;13.27;;;6.90;;
19495;SDS011;9888;48.606;9.630;2023-03-19T07:09:03;15.30;;;8.23;;
19495;SDS011;9888;48.606;9.630;2023-03-19T07:11:30;14.67;;;6.63;;
19495;SDS011;9888;48.606;9.630;2023-03-19T07:13:57;12.00;;;6.13;;
19495;SDS011;9888;48.606;9.630;2023-03-19T07:16:24;14.13;;;6.97;;
19495;SDS011;9888;48.606;9.630;2023-03-19T07:18:50;18.17;;;6.60;;
19495;SDS011;9888;48.606;9.630;2023-03-19T07:21:17;12.50;;;6.63;;
19495;SDS011;9888;48.606;9.630;2023-03-19T07:23:45;12.90;;;6.03;;
19495;SDS011;9888;48.606;9.630;2023-03-19T07:26:12;13.03;;;6.33;;
19495;SDS011;9888;48.606;9.630;2023-03-19T07:28:39;10.40;;;5.37;;
19495;SDS011;9888;48.606;9.630;2023-03-19T07:31:07;10.10;;;4.63;;
19495;SDS011;9888;48.606;9.630;2023-03-19T07:33:34;12.20;;;5.03;;
19495;SDS011;9888;48.606;9.630;2023-03-19T07:36:01;9.87;;;4.70;;
19495;SDS011;9888;48.606;9.630;2023-03-19T07:38:28;9.63;;;4.47;;
19495;SDS011;9888;48.606;9.630;2023-03-19T07:40:57;8.20;;;3.10;;
19495;SDS011;9888;48.606;9.630;2023-03-19T07:43:30;9.60;;;3.70;;
19495;SDS011;9888;48.606;9.630;2023-03-19T07:45:58;8.90;;;3.80;;
19495;SDS011;9888;48.606;9.630;2023-03-19T07:48:26;8.90;;;3.57;;
19495;SDS011;9888;48.606;9.630;2023-03-19T07:50:56;10.20;;;4.43;;
19495;SDS011;9888;48.606;9.630;2023-03-19T07:53:24;13.27;;;6.10;;
19495;SDS011;9888;48.606;9.630;2023-03-19T07:55:51;15.87;;;8.60;;
19495;SDS011;9888;48.606;9.630;2023-03-19T07:58:19;17.00;;;9.60;;
19495;SDS011;9888;48.606;9.630;2023-03-19T08:00:47;18.47;;;9.93;;
19495;SDS011;9888;48.606;9.630;2023-03-19T08:03:14;19.73;;;11.47;;
19495;SDS011;9888;48.606;9.630;2023-03-19T08:05:41;17.30;;;10.47;;
19495;SDS011;9888;48.606;9.630;2023-03-19T08:08:13;18.10;;;10.33;;
19495;SDS011;9888;48.606;9.630;2023-03-19T08:10:42;20.20;;;9.57;;
19495;SDS011;9888;48.606;9.630;2023-03-19T08:13:10;15.60;;;8.73;;
19495;SDS011;9888;48.606;9.630;2023-03-19T08:15:39;15.30;;;8.90;;
19495;SDS011;9888;48.606;9.630;2023-03-19T08:18:07;14.30;;;8.43;;
19495;SDS011;9888;48.606;9.630;2023-03-19T08:20:34;14.77;;;8.07;;
19495;SDS011;9888;48.606;9.630;2023-03-19T08:23:02;13.53;;;7.37;;
19495;SDS011;9888;48.606;9.630;2023-03-19T08:25:31;13.27;;;7.43;;
19495;SDS011;9888;48.606;9.630;2023-03-19T08:28:01;14.37;;;7.87;;
19495;SDS011;9888;48.606;9.630;2023-03-19T08:30:29;14.67;;;8.30;;
19495;SDS011;9888;48.606;9.630;2023-03-19T08:36:21;13.50;;;7.10;;
19495;SDS011;9888;48.606;9.630;2023-03-19T08:38:49;14.53;;;7.80;;
19495;SDS011;9888;48.606;9.630;2023-03-19T08:41:20;14.50;;;7.27;;
19495;SDS011;9888;48.606;9.630;2023-03-19T08:43:47;11.83;;;5.70;;
19495;SDS011;9888;48.606;9.630;2023-03-19T08:46:14;12.73;;;5.50;;
19495;SDS011;9888;48.606;9.630;2023-03-19T08:48:42;11.47;;;5.60;;
19495;SDS011;9888;48.606;9.630;2023-03-19T08:51:10;11.87;;;4.70;;
19495;SDS011;9888;48.606;9.630;2023-03-19T08:53:38;10.30;;;4.77;;
19495;SDS011;9888;48.606;9.630;2023-03-19T21:04:04;9.07;;;3.43;;
19495;SDS011;9888;48.606;9.630;2023-03-19T21:07:28;9.60;;;3.77;;
19495;SDS011;9888;48.606;9.630;2023-03-19T21:10:00;9.13;;;3.60;;
19495;SDS011;9888;48.606;9.630;2023-03-19T21:12:32;8.73;;;3.67;;
19495;SDS011;9888;48.606;9.630;2023-03-19T21:15:00;9.67;;;3.87;;
19495;SDS011;9888;48.606;9.630;2023-03-19T21:17:29;9.93;;;4.13;;
19495;SDS011;9888;48.606;9.630;2023-03-19T21:23:25;9.53;;;3.90;;
19495;SDS011;9888;48.606;9.630;2023-03-19T21:26:04;12.60;;;4.23;;
19495;SDS011;9888;48.606;9.630;2023-03-19T21:28:40;9.53;;;4.37;;
19495;SDS011;9888;48.606;9.630;2023-03-19T21:31:11;9.40;;;4.13;;
19495;SDS011;9888;48.606;9.630;2023-03-19T21:33:45;12.60;;;4.63;;
19495;SDS011;9888;48.606;9.630;2023-03-19T21:36:15;7.87;;;3.63;;
19495;SDS011;9888;48.606;9.630;2023-03-19T21:42:05;10.10;;;4.40;;
19495;SDS011;9888;48.606;9.630;2023-03-19T21:44:40;11.30;;;4.77;;
19495;SDS011;9888;48.606;9.630;2023-03-19T21:47:16;9.23;;;4.50;;
19495;SDS011;9888;48.606;9.630;2023-03-19T21:49:46;10.00;;;5.00;;
19495;SDS011;9888;48.606;9.630;2023-03-19T21:52:14;10.10;;;4.50;;
19495;SDS011;9888;48.606;9.630;2023-03-19T21:54:43;9.80;;;4.30;;
19495;SDS011;9888;48.606;9.630;2023-03-19T22:13:46;13.20;;;7.00;;
19495;SDS011;9888;48.606;9.630;2023-03-19T22:16:18;12.47;;;6.23;;
19495;SDS011;9888;48.606;9.630;2023-03-19T22:18:48;11.33;;;5.40;;
19495;SDS011;9888;48.606;9.630;2023-03-19T22:21:19;13.83;;;6.10;;
19495;SDS011;9888;48.606;9.630;2023-03-19T22:23:49;11.37;;;5.93;;
19495;SDS011;9888;48.606;9.630;2023-03-19T22:28:52;11.93;;;6.73;;
19495;SDS011;9888;48.606;9.630;2023-03-19T22:31:19;13.63;;;7.17;;
19495;SDS011;9888;48.606;9.630;2023-03-19T22:33:47;16.03;;;8.43;;
19495;SDS011;9888;48.606;9.630;2023-03-19T22:36:14;17.53;;;8.87;;
19495;SDS011;9888;48.606;9.630;2023-03-19T22:38:42;14.83;;;8.80;;
19495;SDS011;9888;48.606;9.630;2023-03-19T22:41:16;14.17;;;8.53;;
19495;SDS011;9888;48.606;9.630;2023-03-19T22:43:51;14.50;;;8.30;;
19495;SDS011;9888;48.606;9.630;2023-03-19T22:46:21;14.60;;;8.20;;
19495;SDS011;9888;48.606;9.630;2023-03-19T22:48:53;16.77;;;8.10;;
19495;SDS011;9888;48.606;9.630;2023-03-19T22:51:23;14.23;;;8.17;;
19495;SDS011;9888;48.606;9.630;2023-03-19T22:53:52;17.87;;;8.40;;
19495;SDS011;9888;48.606;9.630;2023-03-19T22:56:20;13.77;;;6.67;;
19495;SDS011;9888;48.606;9.630;2023-03-19T22:58:48;15.70;;;8.57;;
19495;SDS011;9888;48.606;9.630;2023-03-19T23:01:25;14.70;;;7.43;;
19495;SDS011;9888;48.606;9.630;2023-03-19T23:03:55;14.47;;;7.73;;
19495;SDS011;9888;48.606;9.630;2023-03-19T23:06:35;12.70;;;7.47;;
19495;SDS011;9888;48.606;9.630;2023-03-19T23:09:02;12.30;;;7.40;;
19495;SDS011;9888;48.606;9.630;2023-03-19T23:11:29;13.57;;;7.53;;
19495;SDS011;9888;48.606;9.630;2023-03-19T23:13:56;13.43;;;7.73;;
19495;SDS011;9888;48.606;9.630;2023-03-19T23:16:24;15.37;;;8.13;;
19495;SDS011;9888;48.606;9.630;2023-03-19T23:18:52;15.70;;;7.80;;
19495;SDS011;9888;48.606;9.630;2023-03-19T23:21:20;14.87;;;8.30;;
19495;SDS011;9888;48.606;9.630;2023-03-19T23:23:48;12.63;;;7.97;;
19495;SDS011;9888;48.606;9.630;2023-03-19T23:26:26;14.80;;;8.17;;
19495;SDS011;9888;48.606;9.630;2023-03-19T23:28:59;12.80;;;7.30;;
19495;SDS011;9888;48.606;9.630;2023-03-19T23:31:30;11.90;;;7.03;;
19495;SDS011;9888;48.606;9.630;2023-03-19T23:34:00;11.70;;;6.67;;
19495;SDS011;9888;48.606;9.630;2023-03-19T23:36:28;12.83;;;6.90;;
19495;SDS011;9888;48.606;9.630;2023-03-19T23:38:55;14.77;;;7.40;;
19495;SDS011;9888;48.606;9.630;2023-03-19T23:41:24;13.70;;;7.10;;
19495;SDS011;9888;48.606;9.630;2023-03-19T23:43:52;13.87;;;7.00;;
19495;SDS011;9888;48.606;9.630;2023-03-19T23:46:19;12.67;;;6.50;;
19495;SDS011;9888;48.606;9.630;2023-03-19T23:48:46;13.27;;;5.97;;
19495;SDS011;9888;48.606;9.630;2023-03-19T23:51:14;14.87;;;6.93;;
19495;SDS011;9888;48.606;9.630;2023-03-19T23:53:42;14.00;;;5.70;;
19495;SDS011;9888;48.606;9.630;2023-03-19T23:56:19;11.00;;;5.40;;
19495;SDS011;9888;48.606;9.630;2023-03-19T23:58:49;11.00;;;5.87;;
